sensor_id;sensor_type;location;lat;lon;timestamp;P1;durP1;ratioP1;P2;durP2;ratioP2
42364;SDS011;28498;54.400;18.566;2023-08-20T00:01:24;27.17;;;19.15;;
42364;SDS011;28498;54.400;18.566;2023-08-20T00:03:54;28.90;;;19.00;;
42364;SDS011;28498;54.400;18.566;2023-08-20T00:06:21;25.27;;;18.73;;
42364;SDS011;28498;54.400;18.566;2023-08-20T00:08:49;29.25;;;19.35;;
42364;SDS011;28498;54.400;18.566;2023-08-20T00:11:16;24.95;;;17.73;;
42364;SDS011;28498;54.400;18.566;2023-08-20T00:13:44;25.95;;;17.75;;
42364;SDS011;28498;54.400;18.566;2023-08-20T00:16:11;26.58;;;18.23;;
42364;SDS011;28498;54.400;18.566;2023-08-20T00:18:38;26.38;;;18.45;;
42364;SDS011;28498;54.400;18.566;2023-08-20T00:21:06;27.08;;;18.60;;
42364;SDS011;28498;54.400;18.566;2023-08-20T00:23:34;29.23;;;18.05;;
42364;SDS011;28498;54.400;18.566;2023-08-20T00:26:02;25.73;;;18.60;;
42364;SDS011;28498;54.400;18.566;2023-08-20T00:28:31;25.10;;;18.52;;
42364;SDS011;28498;54.400;18.566;2023-08-20T00:31:00;28.17;;;18.30;;
42364;SDS011;28498;54.400;18.566;2023-08-20T00:33:28;25.98;;;18.05;;
42364;SDS011;28498;54.400;18.566;2023-08-20T00:35:55;25.83;;;18.27;;
42364;SDS011;28498;54.400;18.566;2023-08-20T00:38:22;27.30;;;17.90;;
42364;SDS011;28498;54.400;18.566;2023-08-20T00:40:49;25.65;;;18.50;;
42364;SDS011;28498;54.400;18.566;2023-08-20T00:43:16;26.02;;;18.67;;
42364;SDS011;28498;54.400;18.566;2023-08-20T00:45:43;25.25;;;18.35;;
42364;SDS011;28498;54.400;18.566;2023-08-20T00:48:11;25.90;;;17.88;;
42364;SDS011;28498;54.400;18.566;2023-08-20T00:50:38;22.98;;;16.95;;
42364;SDS011;28498;54.400;18.566;2023-08-20T00:53:07;26.15;;;18.35;;
42364;SDS011;28498;54.400;18.566;2023-08-20T00:55:37;26.05;;;17.92;;
42364;SDS011;28498;54.400;18.566;2023-08-20T00:58:04;26.27;;;17.40;;
42364;SDS011;28498;54.400;18.566;2023-08-20T01:00:32;26.90;;;17.05;;
42364;SDS011;28498;54.400;18.566;2023-08-20T01:02:59;26.77;;;18.83;;
42364;SDS011;28498;54.400;18.566;2023-08-20T01:05:26;24.30;;;17.30;;
42364;SDS011;28498;54.400;18.566;2023-08-20T01:11:00;26.27;;;17.90;;
42364;SDS011;28498;54.400;18.566;2023-08-20T01:13:32;24.65;;;17.30;;
42364;SDS011;28498;54.400;18.566;2023-08-20T01:15:59;26.30;;;17.45;;
42364;SDS011;28498;54.400;18.566;2023-08-20T01:18:26;26.98;;;17.42;;
42364;SDS011;28498;54.400;18.566;2023-08-20T01:20:58;27.85;;;18.08;;
42364;SDS011;28498;54.400;18.566;2023-08-20T01:26:33;24.58;;;16.88;;
42364;SDS011;28498;54.400;18.566;2023-08-20T01:29:22;24.77;;;17.65;;
42364;SDS011;28498;54.400;18.566;2023-08-20T01:31:49;26.05;;;18.40;;
42364;SDS011;28498;54.400;18.566;2023-08-20T01:34:18;28.35;;;18.90;;
42364;SDS011;28498;54.400;18.566;2023-08-20T01:36:45;26.70;;;18.92;;
42364;SDS011;28498;54.400;18.566;2023-08-20T01:39:12;27.80;;;18.85;;
42364;SDS011;28498;54.400;18.566;2023-08-20T01:41:40;23.92;;;17.67;;
42364;SDS011;28498;54.400;18.566;2023-08-20T01:44:07;27.85;;;18.50;;
42364;SDS011;28498;54.400;18.566;2023-08-20T01:46:34;27.48;;;19.10;;
42364;SDS011;28498;54.400;18.566;2023-08-20T01:49:01;27.63;;;18.70;;
42364;SDS011;28498;54.400;18.566;2023-08-20T01:51:28;27.20;;;16.70;;
42364;SDS011;28498;54.400;18.566;2023-08-20T01:53:55;25.20;;;16.90;;
42364;SDS011;28498;54.400;18.566;2023-08-20T01:56:22;25.52;;;17.55;;
42364;SDS011;28498;54.400;18.566;2023-08-20T01:58:49;26.42;;;17.20;;
42364;SDS011;28498;54.400;18.566;2023-08-20T02:01:16;24.60;;;17.10;;
42364;SDS011;28498;54.400;18.566;2023-08-20T02:03:43;25.13;;;17.83;;
42364;SDS011;28498;54.400;18.566;2023-08-20T02:06:10;25.52;;;17.75;;
42364;SDS011;28498;54.400;18.566;2023-08-20T02:08:38;27.33;;;17.60;;
42364;SDS011;28498;54.400;18.566;2023-08-20T02:11:05;25.65;;;17.25;;
42364;SDS011;28498;54.400;18.566;2023-08-20T02:13:32;24.38;;;16.73;;
42364;SDS011;28498;54.400;18.566;2023-08-20T02:16:02;25.55;;;17.40;;
42364;SDS011;28498;54.400;18.566;2023-08-20T02:18:31;27.67;;;17.23;;
42364;SDS011;28498;54.400;18.566;2023-08-20T02:20:58;25.65;;;17.90;;
42364;SDS011;28498;54.400;18.566;2023-08-20T02:23:26;25.88;;;17.65;;
42364;SDS011;28498;54.400;18.566;2023-08-20T02:25:53;27.52;;;17.33;;
42364;SDS011;28498;54.400;18.566;2023-08-20T02:28:20;26.52;;;17.35;;
42364;SDS011;28498;54.400;18.566;2023-08-20T02:30:47;27.05;;;18.65;;
42364;SDS011;28498;54.400;18.566;2023-08-20T02:33:15;28.25;;;18.63;;
42364;SDS011;28498;54.400;18.566;2023-08-20T02:35:42;27.35;;;18.25;;
42364;SDS011;28498;54.400;18.566;2023-08-20T02:38:09;24.70;;;17.70;;
42364;SDS011;28498;54.400;18.566;2023-08-20T02:40:40;26.85;;;18.02;;
42364;SDS011;28498;54.400;18.566;2023-08-20T02:43:08;28.40;;;17.60;;
42364;SDS011;28498;54.400;18.566;2023-08-20T02:45:44;25.25;;;17.45;;
42364;SDS011;28498;54.400;18.566;2023-08-20T02:48:12;27.40;;;18.80;;
42364;SDS011;28498;54.400;18.566;2023-08-20T02:50:41;28.05;;;18.25;;
42364;SDS011;28498;54.400;18.566;2023-08-20T02:53:08;25.00;;;17.33;;
42364;SDS011;28498;54.400;18.566;2023-08-20T02:55:35;27.88;;;18.85;;
42364;SDS011;28498;54.400;18.566;2023-08-20T02:58:02;27.20;;;18.02;;
42364;SDS011;28498;54.400;18.566;2023-08-20T03:00:34;27.92;;;18.23;;
42364;SDS011;28498;54.400;18.566;2023-08-20T03:03:01;25.80;;;18.00;;
42364;SDS011;28498;54.400;18.566;2023-08-20T03:05:32;27.05;;;17.40;;
42364;SDS011;28498;54.400;18.566;2023-08-20T03:07:59;25.67;;;17.58;;
42364;SDS011;28498;54.400;18.566;2023-08-20T03:10:27;27.05;;;18.50;;
42364;SDS011;28498;54.400;18.566;2023-08-20T03:12:54;27.25;;;18.40;;
42364;SDS011;28498;54.400;18.566;2023-08-20T03:15:21;25.27;;;17.50;;
42364;SDS011;28498;54.400;18.566;2023-08-20T03:17:48;25.98;;;17.80;;
42364;SDS011;28498;54.400;18.566;2023-08-20T03:20:15;27.58;;;18.13;;
42364;SDS011;28498;54.400;18.566;2023-08-20T03:22:42;26.63;;;17.40;;
42364;SDS011;28498;54.400;18.566;2023-08-20T03:25:09;32.58;;;19.35;;
42364;SDS011;28498;54.400;18.566;2023-08-20T03:27:36;28.25;;;18.63;;
42364;SDS011;28498;54.400;18.566;2023-08-20T03:30:03;24.70;;;17.90;;
42364;SDS011;28498;54.400;18.566;2023-08-20T03:32:31;28.92;;;18.00;;
42364;SDS011;28498;54.400;18.566;2023-08-20T03:34:58;25.00;;;17.02;;
42364;SDS011;28498;54.400;18.566;2023-08-20T03:37:25;25.48;;;17.63;;
42364;SDS011;28498;54.400;18.566;2023-08-20T03:39:53;27.50;;;17.60;;
42364;SDS011;28498;54.400;18.566;2023-08-20T03:42:20;27.67;;;18.05;;
42364;SDS011;28498;54.400;18.566;2023-08-20T03:44:47;27.48;;;18.23;;
42364;SDS011;28498;54.400;18.566;2023-08-20T03:47:14;27.13;;;17.27;;
42364;SDS011;28498;54.400;18.566;2023-08-20T03:49:41;28.77;;;17.52;;
42364;SDS011;28498;54.400;18.566;2023-08-20T03:52:08;28.85;;;18.00;;
42364;SDS011;28498;54.400;18.566;2023-08-20T03:54:35;26.15;;;17.10;;
42364;SDS011;28498;54.400;18.566;2023-08-20T03:57:02;27.40;;;16.85;;
42364;SDS011;28498;54.400;18.566;2023-08-20T03:59:30;24.70;;;17.75;;
42364;SDS011;28498;54.400;18.566;2023-08-20T04:01:57;24.23;;;16.85;;
42364;SDS011;28498;54.400;18.566;2023-08-20T04:04:24;27.48;;;18.92;;
42364;SDS011;28498;54.400;18.566;2023-08-20T04:06:52;26.88;;;17.50;;
42364;SDS011;28498;54.400;18.566;2023-08-20T04:09:19;25.55;;;17.42;;
42364;SDS011;28498;54.400;18.566;2023-08-20T04:11:46;25.70;;;18.00;;
42364;SDS011;28498;54.400;18.566;2023-08-20T04:14:13;28.25;;;18.27;;
42364;SDS011;28498;54.400;18.566;2023-08-20T04:16:40;24.80;;;17.50;;
42364;SDS011;28498;54.400;18.566;2023-08-20T04:19:07;30.00;;;19.52;;
42364;SDS011;28498;54.400;18.566;2023-08-20T04:21:35;25.35;;;17.58;;
42364;SDS011;28498;54.400;18.566;2023-08-20T04:24:02;25.33;;;18.33;;
42364;SDS011;28498;54.400;18.566;2023-08-20T04:26:29;25.50;;;17.15;;
42364;SDS011;28498;54.400;18.566;2023-08-20T04:28:56;25.33;;;18.48;;
42364;SDS011;28498;54.400;18.566;2023-08-20T04:31:23;25.58;;;19.17;;
42364;SDS011;28498;54.400;18.566;2023-08-20T04:33:50;24.25;;;18.08;;
42364;SDS011;28498;54.400;18.566;2023-08-20T04:36:17;24.50;;;17.67;;
42364;SDS011;28498;54.400;18.566;2023-08-20T04:38:44;23.83;;;17.67;;
42364;SDS011;28498;54.400;18.566;2023-08-20T04:41:11;26.02;;;18.85;;
42364;SDS011;28498;54.400;18.566;2023-08-20T04:43:38;24.30;;;18.02;;
42364;SDS011;28498;54.400;18.566;2023-08-20T04:46:05;31.30;;;18.73;;
42364;SDS011;28498;54.400;18.566;2023-08-20T04:48:32;23.70;;;18.05;;
42364;SDS011;28498;54.400;18.566;2023-08-20T04:50:59;23.45;;;18.08;;
42364;SDS011;28498;54.400;18.566;2023-08-20T04:53:26;23.83;;;17.67;;
42364;SDS011;28498;54.400;18.566;2023-08-20T04:55:53;25.25;;;17.25;;
42364;SDS011;28498;54.400;18.566;2023-08-20T04:58:20;20.60;;;15.88;;
42364;SDS011;28498;54.400;18.566;2023-08-20T05:00:47;20.67;;;15.70;;
42364;SDS011;28498;54.400;18.566;2023-08-20T05:03:14;20.25;;;14.68;;
42364;SDS011;28498;54.400;18.566;2023-08-20T05:05:41;17.50;;;14.23;;
42364;SDS011;28498;54.400;18.566;2023-08-20T05:08:08;19.10;;;14.38;;
42364;SDS011;28498;54.400;18.566;2023-08-20T05:10:36;20.40;;;14.80;;
42364;SDS011;28498;54.400;18.566;2023-08-20T05:13:03;20.83;;;14.60;;
42364;SDS011;28498;54.400;18.566;2023-08-20T05:15:31;17.45;;;13.60;;
42364;SDS011;28498;54.400;18.566;2023-08-20T05:17:58;20.70;;;15.23;;
42364;SDS011;28498;54.400;18.566;2023-08-20T05:20:25;18.85;;;14.27;;
42364;SDS011;28498;54.400;18.566;2023-08-20T05:22:52;18.05;;;13.90;;
42364;SDS011;28498;54.400;18.566;2023-08-20T05:25:19;16.02;;;12.52;;
42364;SDS011;28498;54.400;18.566;2023-08-20T05:27:46;18.45;;;13.32;;
42364;SDS011;28498;54.400;18.566;2023-08-20T05:30:13;19.10;;;13.40;;
42364;SDS011;28498;54.400;18.566;2023-08-20T05:32:40;16.08;;;13.20;;
42364;SDS011;28498;54.400;18.566;2023-08-20T05:35:07;14.85;;;12.10;;
42364;SDS011;28498;54.400;18.566;2023-08-20T05:37:34;14.82;;;12.07;;
42364;SDS011;28498;54.400;18.566;2023-08-20T05:40:01;15.93;;;12.25;;
42364;SDS011;28498;54.400;18.566;2023-08-20T05:42:29;15.60;;;11.65;;
42364;SDS011;28498;54.400;18.566;2023-08-20T05:44:56;14.68;;;11.40;;
42364;SDS011;28498;54.400;18.566;2023-08-20T05:47:23;14.50;;;11.70;;
42364;SDS011;28498;54.400;18.566;2023-08-20T05:49:50;13.48;;;11.68;;
42364;SDS011;28498;54.400;18.566;2023-08-20T05:52:17;15.15;;;11.38;;
42364;SDS011;28498;54.400;18.566;2023-08-20T05:54:44;13.10;;;11.05;;
42364;SDS011;28498;54.400;18.566;2023-08-20T05:57:11;15.70;;;12.35;;
42364;SDS011;28498;54.400;18.566;2023-08-20T05:59:38;13.43;;;10.00;;
42364;SDS011;28498;54.400;18.566;2023-08-20T06:02:05;13.73;;;11.02;;
42364;SDS011;28498;54.400;18.566;2023-08-20T06:04:32;15.18;;;10.50;;
42364;SDS011;28498;54.400;18.566;2023-08-20T06:06:59;14.90;;;11.50;;
42364;SDS011;28498;54.400;18.566;2023-08-20T06:09:27;14.40;;;10.80;;
42364;SDS011;28498;54.400;18.566;2023-08-20T06:11:54;14.77;;;10.80;;
42364;SDS011;28498;54.400;18.566;2023-08-20T06:14:21;13.50;;;10.82;;
42364;SDS011;28498;54.400;18.566;2023-08-20T06:16:48;14.25;;;10.48;;
42364;SDS011;28498;54.400;18.566;2023-08-20T06:19:15;14.88;;;11.77;;
42364;SDS011;28498;54.400;18.566;2023-08-20T06:21:42;14.57;;;11.70;;
42364;SDS011;28498;54.400;18.566;2023-08-20T06:24:09;15.15;;;11.32;;
42364;SDS011;28498;54.400;18.566;2023-08-20T06:26:36;14.25;;;11.68;;
42364;SDS011;28498;54.400;18.566;2023-08-20T06:29:03;14.32;;;11.23;;
42364;SDS011;28498;54.400;18.566;2023-08-20T06:31:30;14.05;;;11.40;;
42364;SDS011;28498;54.400;18.566;2023-08-20T06:33:57;13.68;;;11.25;;
42364;SDS011;28498;54.400;18.566;2023-08-20T06:36:24;13.45;;;11.02;;
42364;SDS011;28498;54.400;18.566;2023-08-20T06:38:51;14.02;;;11.40;;
42364;SDS011;28498;54.400;18.566;2023-08-20T06:41:18;17.60;;;11.35;;
42364;SDS011;28498;54.400;18.566;2023-08-20T06:43:45;14.68;;;10.88;;
42364;SDS011;28498;54.400;18.566;2023-08-20T06:46:12;15.40;;;11.73;;
42364;SDS011;28498;54.400;18.566;2023-08-20T06:48:39;15.35;;;11.23;;
42364;SDS011;28498;54.400;18.566;2023-08-20T06:51:12;17.08;;;12.23;;
42364;SDS011;28498;54.400;18.566;2023-08-20T06:53:41;15.27;;;11.73;;
42364;SDS011;28498;54.400;18.566;2023-08-20T06:56:08;15.50;;;11.02;;
42364;SDS011;28498;54.400;18.566;2023-08-20T06:58:36;17.77;;;11.95;;
42364;SDS011;28498;54.400;18.566;2023-08-20T07:01:07;15.65;;;11.50;;
42364;SDS011;28498;54.400;18.566;2023-08-20T07:03:38;16.42;;;12.23;;
42364;SDS011;28498;54.400;18.566;2023-08-20T07:06:06;15.68;;;11.32;;
42364;SDS011;28498;54.400;18.566;2023-08-20T07:08:35;14.10;;;11.70;;
42364;SDS011;28498;54.400;18.566;2023-08-20T07:11:06;15.23;;;11.70;;
42364;SDS011;28498;54.400;18.566;2023-08-20T07:13:33;13.82;;;10.38;;
42364;SDS011;28498;54.400;18.566;2023-08-20T07:16:01;15.70;;;12.15;;
42364;SDS011;28498;54.400;18.566;2023-08-20T07:18:28;15.68;;;11.60;;
42364;SDS011;28498;54.400;18.566;2023-08-20T07:20:55;15.38;;;12.13;;
42364;SDS011;28498;54.400;18.566;2023-08-20T07:23:23;16.25;;;13.02;;
42364;SDS011;28498;54.400;18.566;2023-08-20T07:25:50;16.40;;;12.82;;
42364;SDS011;28498;54.400;18.566;2023-08-20T07:28:18;15.13;;;12.10;;
42364;SDS011;28498;54.400;18.566;2023-08-20T07:31:08;17.35;;;11.65;;
42364;SDS011;28498;54.400;18.566;2023-08-20T07:33:35;13.35;;;11.05;;
42364;SDS011;28498;54.400;18.566;2023-08-20T07:36:02;13.98;;;10.60;;
42364;SDS011;28498;54.400;18.566;2023-08-20T07:38:29;13.20;;;10.70;;
42364;SDS011;28498;54.400;18.566;2023-08-20T07:40:56;11.75;;;10.23;;
42364;SDS011;28498;54.400;18.566;2023-08-20T07:43:24;12.02;;;9.95;;
42364;SDS011;28498;54.400;18.566;2023-08-20T07:45:51;13.45;;;10.60;;
42364;SDS011;28498;54.400;18.566;2023-08-20T07:48:18;14.40;;;11.85;;
42364;SDS011;28498;54.400;18.566;2023-08-20T07:50:45;14.13;;;10.98;;
42364;SDS011;28498;54.400;18.566;2023-08-20T07:53:12;13.55;;;10.20;;
42364;SDS011;28498;54.400;18.566;2023-08-20T07:55:39;12.18;;;10.45;;
42364;SDS011;28498;54.400;18.566;2023-08-20T07:58:06;12.77;;;10.95;;
42364;SDS011;28498;54.400;18.566;2023-08-20T08:00:33;15.77;;;10.82;;
42364;SDS011;28498;54.400;18.566;2023-08-20T08:03:00;14.18;;;10.95;;
42364;SDS011;28498;54.400;18.566;2023-08-20T08:05:28;12.80;;;10.55;;
42364;SDS011;28498;54.400;18.566;2023-08-20T08:07:55;13.90;;;10.68;;
42364;SDS011;28498;54.400;18.566;2023-08-20T08:10:22;13.40;;;10.30;;
42364;SDS011;28498;54.400;18.566;2023-08-20T08:12:49;13.82;;;10.70;;
42364;SDS011;28498;54.400;18.566;2023-08-20T08:15:16;12.15;;;9.68;;
42364;SDS011;28498;54.400;18.566;2023-08-20T08:17:44;11.60;;;9.48;;
42364;SDS011;28498;54.400;18.566;2023-08-20T08:20:11;14.30;;;9.60;;
42364;SDS011;28498;54.400;18.566;2023-08-20T08:22:39;11.75;;;9.77;;
42364;SDS011;28498;54.400;18.566;2023-08-20T08:25:06;12.23;;;9.43;;
42364;SDS011;28498;54.400;18.566;2023-08-20T08:27:33;11.35;;;9.52;;
42364;SDS011;28498;54.400;18.566;2023-08-20T08:30:15;13.18;;;9.40;;
42364;SDS011;28498;54.400;18.566;2023-08-20T08:32:42;11.88;;;9.05;;
42364;SDS011;28498;54.400;18.566;2023-08-20T08:35:09;12.00;;;9.00;;
42364;SDS011;28498;54.400;18.566;2023-08-20T08:37:37;12.50;;;8.95;;
42364;SDS011;28498;54.400;18.566;2023-08-20T08:40:04;12.23;;;9.13;;
42364;SDS011;28498;54.400;18.566;2023-08-20T08:42:35;11.30;;;9.18;;
42364;SDS011;28498;54.400;18.566;2023-08-20T08:45:02;9.98;;;8.57;;
42364;SDS011;28498;54.400;18.566;2023-08-20T08:47:29;11.27;;;9.02;;
42364;SDS011;28498;54.400;18.566;2023-08-20T08:49:57;15.77;;;9.95;;
42364;SDS011;28498;54.400;18.566;2023-08-20T08:52:24;11.30;;;9.05;;
42364;SDS011;28498;54.400;18.566;2023-08-20T08:54:52;12.07;;;8.60;;
42364;SDS011;28498;54.400;18.566;2023-08-20T08:57:19;10.57;;;9.13;;
42364;SDS011;28498;54.400;18.566;2023-08-20T08:59:46;11.82;;;9.40;;
42364;SDS011;28498;54.400;18.566;2023-08-20T09:02:14;12.07;;;8.95;;
42364;SDS011;28498;54.400;18.566;2023-08-20T09:04:44;12.32;;;8.77;;
42364;SDS011;28498;54.400;18.566;2023-08-20T09:07:12;10.40;;;8.40;;
42364;SDS011;28498;54.400;18.566;2023-08-20T09:09:43;9.38;;;8.38;;
42364;SDS011;28498;54.400;18.566;2023-08-20T09:14:46;9.82;;;8.65;;
42364;SDS011;28498;54.400;18.566;2023-08-20T09:17:16;10.45;;;8.48;;
42364;SDS011;28498;54.400;18.566;2023-08-20T09:19:44;9.63;;;8.07;;
42364;SDS011;28498;54.400;18.566;2023-08-20T09:22:12;11.98;;;8.40;;
42364;SDS011;28498;54.400;18.566;2023-08-20T09:27:08;9.48;;;8.30;;
42364;SDS011;28498;54.400;18.566;2023-08-20T09:32:16;11.55;;;8.43;;
42364;SDS011;28498;54.400;18.566;2023-08-20T09:34:45;9.82;;;8.38;;
42364;SDS011;28498;54.400;18.566;2023-08-20T09:37:14;10.93;;;9.10;;
42364;SDS011;28498;54.400;18.566;2023-08-20T09:39:42;9.30;;;8.15;;
42364;SDS011;28498;54.400;18.566;2023-08-20T09:42:09;9.80;;;8.43;;
42364;SDS011;28498;54.400;18.566;2023-08-20T09:44:38;11.25;;;8.00;;
42364;SDS011;28498;54.400;18.566;2023-08-20T09:47:07;10.30;;;9.05;;
42364;SDS011;28498;54.400;18.566;2023-08-20T09:49:36;12.30;;;8.65;;
42364;SDS011;28498;54.400;18.566;2023-08-20T09:52:05;12.15;;;8.98;;
42364;SDS011;28498;54.400;18.566;2023-08-20T09:57:11;9.68;;;7.72;;
42364;SDS011;28498;54.400;18.566;2023-08-20T09:59:44;9.13;;;7.53;;
42364;SDS011;28498;54.400;18.566;2023-08-20T10:02:14;12.05;;;8.38;;
42364;SDS011;28498;54.400;18.566;2023-08-20T10:04:42;12.27;;;9.70;;
42364;SDS011;28498;54.400;18.566;2023-08-20T10:07:10;12.55;;;10.38;;
42364;SDS011;28498;54.400;18.566;2023-08-20T10:09:38;11.27;;;9.20;;
42364;SDS011;28498;54.400;18.566;2023-08-20T10:12:10;13.75;;;11.02;;
42364;SDS011;28498;54.400;18.566;2023-08-20T10:14:41;12.85;;;10.73;;
42364;SDS011;28498;54.400;18.566;2023-08-20T10:17:08;14.48;;;11.07;;
42364;SDS011;28498;54.400;18.566;2023-08-20T10:19:38;13.55;;;10.20;;
42364;SDS011;28498;54.400;18.566;2023-08-20T10:22:06;12.70;;;10.50;;
42364;SDS011;28498;54.400;18.566;2023-08-20T10:24:49;11.90;;;10.15;;
42364;SDS011;28498;54.400;18.566;2023-08-20T10:27:27;11.77;;;10.48;;
42364;SDS011;28498;54.400;18.566;2023-08-20T10:29:59;12.70;;;9.73;;
42364;SDS011;28498;54.400;18.566;2023-08-20T10:32:43;13.75;;;10.10;;
42364;SDS011;28498;54.400;18.566;2023-08-20T10:35:11;10.98;;;8.25;;
42364;SDS011;28498;54.400;18.566;2023-08-20T10:37:39;12.65;;;9.48;;
42364;SDS011;28498;54.400;18.566;2023-08-20T10:41:15;12.48;;;10.32;;
42364;SDS011;28498;54.400;18.566;2023-08-20T10:43:32;12.18;;;9.85;;
42364;SDS011;28498;54.400;18.566;2023-08-20T10:48:35;14.45;;;10.77;;
42364;SDS011;28498;54.400;18.566;2023-08-20T10:51:15;16.38;;;11.00;;
42364;SDS011;28498;54.400;18.566;2023-08-20T10:56:44;15.23;;;11.77;;
42364;SDS011;28498;54.400;18.566;2023-08-20T10:59:20;15.00;;;11.75;;
42364;SDS011;28498;54.400;18.566;2023-08-20T11:01:49;13.13;;;9.82;;
42364;SDS011;28498;54.400;18.566;2023-08-20T11:04:19;14.00;;;11.07;;
42364;SDS011;28498;54.400;18.566;2023-08-20T11:06:49;13.50;;;10.85;;
42364;SDS011;28498;54.400;18.566;2023-08-20T11:09:21;14.13;;;11.43;;
42364;SDS011;28498;54.400;18.566;2023-08-20T11:11:49;14.25;;;9.88;;
42364;SDS011;28498;54.400;18.566;2023-08-20T11:14:18;10.93;;;9.05;;
42364;SDS011;28498;54.400;18.566;2023-08-20T11:16:46;11.50;;;8.10;;
42364;SDS011;28498;54.400;18.566;2023-08-20T11:19:18;10.95;;;8.55;;
42364;SDS011;28498;54.400;18.566;2023-08-20T11:21:47;10.70;;;8.88;;
42364;SDS011;28498;54.400;18.566;2023-08-20T11:24:14;10.20;;;8.52;;
42364;SDS011;28498;54.400;18.566;2023-08-20T11:26:44;10.20;;;8.38;;
42364;SDS011;28498;54.400;18.566;2023-08-20T11:29:12;10.95;;;8.57;;
42364;SDS011;28498;54.400;18.566;2023-08-20T11:31:42;10.27;;;8.00;;
42364;SDS011;28498;54.400;18.566;2023-08-20T11:34:09;9.30;;;7.72;;
42364;SDS011;28498;54.400;18.566;2023-08-20T11:36:38;10.10;;;7.60;;
42364;SDS011;28498;54.400;18.566;2023-08-20T11:39:06;11.85;;;8.20;;
42364;SDS011;28498;54.400;18.566;2023-08-20T11:41:37;13.10;;;8.00;;
42364;SDS011;28498;54.400;18.566;2023-08-20T11:44:08;13.10;;;8.77;;
42364;SDS011;28498;54.400;18.566;2023-08-20T11:46:41;11.38;;;8.00;;
42364;SDS011;28498;54.400;18.566;2023-08-20T11:49:10;23.52;;;9.80;;
42364;SDS011;28498;54.400;18.566;2023-08-20T11:51:42;14.85;;;8.68;;
42364;SDS011;28498;54.400;18.566;2023-08-20T11:54:13;11.50;;;7.97;;
42364;SDS011;28498;54.400;18.566;2023-08-20T11:56:48;15.20;;;8.65;;
42364;SDS011;28498;54.400;18.566;2023-08-20T11:59:18;13.18;;;8.68;;
42364;SDS011;28498;54.400;18.566;2023-08-20T12:01:57;11.15;;;8.48;;
42364;SDS011;28498;54.400;18.566;2023-08-20T12:04:27;10.27;;;6.95;;
42364;SDS011;28498;54.400;18.566;2023-08-20T12:07:05;10.75;;;7.15;;
42364;SDS011;28498;54.400;18.566;2023-08-20T12:09:35;9.38;;;8.07;;
42364;SDS011;28498;54.400;18.566;2023-08-20T12:12:04;9.55;;;7.65;;
42364;SDS011;28498;54.400;18.566;2023-08-20T12:14:33;12.85;;;8.57;;
42364;SDS011;28498;54.400;18.566;2023-08-20T12:17:01;11.35;;;8.23;;
42364;SDS011;28498;54.400;18.566;2023-08-20T12:19:29;11.27;;;8.63;;
42364;SDS011;28498;54.400;18.566;2023-08-20T12:21:56;10.38;;;8.65;;
42364;SDS011;28498;54.400;18.566;2023-08-20T12:24:24;9.48;;;8.15;;
42364;SDS011;28498;54.400;18.566;2023-08-20T12:26:52;10.48;;;7.65;;
42364;SDS011;28498;54.400;18.566;2023-08-20T12:29:20;10.23;;;8.63;;
42364;SDS011;28498;54.400;18.566;2023-08-20T12:31:47;12.43;;;8.57;;
42364;SDS011;28498;54.400;18.566;2023-08-20T12:34:14;11.13;;;8.05;;
42364;SDS011;28498;54.400;18.566;2023-08-20T12:36:41;12.90;;;8.52;;
42364;SDS011;28498;54.400;18.566;2023-08-20T12:39:08;9.27;;;7.90;;
42364;SDS011;28498;54.400;18.566;2023-08-20T12:41:35;11.05;;;8.07;;
42364;SDS011;28498;54.400;18.566;2023-08-20T12:44:03;11.43;;;8.50;;
42364;SDS011;28498;54.400;18.566;2023-08-20T12:46:30;11.65;;;7.65;;
42364;SDS011;28498;54.400;18.566;2023-08-20T12:48:57;10.40;;;7.72;;
42364;SDS011;28498;54.400;18.566;2023-08-20T12:51:24;9.23;;;6.88;;
42364;SDS011;28498;54.400;18.566;2023-08-20T12:53:52;8.68;;;7.00;;
42364;SDS011;28498;54.400;18.566;2023-08-20T12:56:19;10.27;;;7.30;;
42364;SDS011;28498;54.400;18.566;2023-08-20T12:58:46;8.95;;;7.00;;
42364;SDS011;28498;54.400;18.566;2023-08-20T13:01:13;9.82;;;8.00;;
42364;SDS011;28498;54.400;18.566;2023-08-20T13:03:40;10.15;;;7.93;;
42364;SDS011;28498;54.400;18.566;2023-08-20T13:06:08;10.98;;;8.13;;
42364;SDS011;28498;54.400;18.566;2023-08-20T13:08:35;9.55;;;7.60;;
42364;SDS011;28498;54.400;18.566;2023-08-20T13:11:03;11.20;;;8.05;;
42364;SDS011;28498;54.400;18.566;2023-08-20T13:13:33;9.90;;;7.25;;
42364;SDS011;28498;54.400;18.566;2023-08-20T13:16:00;8.93;;;7.05;;
42364;SDS011;28498;54.400;18.566;2023-08-20T13:18:29;9.52;;;6.63;;
42364;SDS011;28498;54.400;18.566;2023-08-20T13:20:56;11.75;;;7.07;;
42364;SDS011;28498;54.400;18.566;2023-08-20T13:23:23;9.45;;;6.90;;
42364;SDS011;28498;54.400;18.566;2023-08-20T13:25:50;9.00;;;7.10;;
42364;SDS011;28498;54.400;18.566;2023-08-20T13:28:18;9.20;;;7.38;;
42364;SDS011;28498;54.400;18.566;2023-08-20T13:30:45;11.25;;;7.63;;
42364;SDS011;28498;54.400;18.566;2023-08-20T13:33:12;14.05;;;8.05;;
42364;SDS011;28498;54.400;18.566;2023-08-20T13:35:41;10.00;;;7.72;;
42364;SDS011;28498;54.400;18.566;2023-08-20T13:38:08;9.95;;;7.50;;
42364;SDS011;28498;54.400;18.566;2023-08-20T13:40:35;11.85;;;7.35;;
42364;SDS011;28498;54.400;18.566;2023-08-20T13:43:02;11.45;;;7.60;;
42364;SDS011;28498;54.400;18.566;2023-08-20T13:45:30;11.02;;;7.38;;
42364;SDS011;28498;54.400;18.566;2023-08-20T13:47:57;10.18;;;7.05;;
42364;SDS011;28498;54.400;18.566;2023-08-20T13:50:24;10.60;;;6.72;;
42364;SDS011;28498;54.400;18.566;2023-08-20T13:52:51;9.65;;;7.18;;
42364;SDS011;28498;54.400;18.566;2023-08-20T13:55:18;9.52;;;6.65;;
42364;SDS011;28498;54.400;18.566;2023-08-20T13:57:47;8.18;;;7.00;;
42364;SDS011;28498;54.400;18.566;2023-08-20T14:00:15;9.95;;;6.88;;
42364;SDS011;28498;54.400;18.566;2023-08-20T14:02:42;8.15;;;6.75;;
42364;SDS011;28498;54.400;18.566;2023-08-20T14:05:09;11.38;;;7.35;;
42364;SDS011;28498;54.400;18.566;2023-08-20T14:07:37;9.00;;;6.97;;
42364;SDS011;28498;54.400;18.566;2023-08-20T14:10:05;9.07;;;6.65;;
42364;SDS011;28498;54.400;18.566;2023-08-20T14:12:33;8.30;;;6.43;;
42364;SDS011;28498;54.400;18.566;2023-08-20T14:15:05;8.05;;;6.18;;
42364;SDS011;28498;54.400;18.566;2023-08-20T14:17:33;7.55;;;6.13;;
42364;SDS011;28498;54.400;18.566;2023-08-20T14:20:00;7.43;;;5.97;;
42364;SDS011;28498;54.400;18.566;2023-08-20T14:22:27;7.45;;;6.20;;
42364;SDS011;28498;54.400;18.566;2023-08-20T14:24:54;8.13;;;5.65;;
42364;SDS011;28498;54.400;18.566;2023-08-20T14:27:21;6.20;;;5.18;;
42364;SDS011;28498;54.400;18.566;2023-08-20T14:29:49;6.68;;;5.90;;
42364;SDS011;28498;54.400;18.566;2023-08-20T14:32:16;6.38;;;5.18;;
42364;SDS011;28498;54.400;18.566;2023-08-20T14:34:43;6.32;;;4.90;;
42364;SDS011;28498;54.400;18.566;2023-08-20T14:37:10;9.77;;;4.80;;
42364;SDS011;28498;54.400;18.566;2023-08-20T14:39:39;6.53;;;5.22;;
42364;SDS011;28498;54.400;18.566;2023-08-20T14:42:07;6.85;;;4.75;;
42364;SDS011;28498;54.400;18.566;2023-08-20T14:44:34;6.75;;;4.70;;